createdAt,value
2024-02-28T00:00:45.042Z,24.60
2024-02-28T00:03:07.402Z,22.20
2024-02-28T00:05:30.585Z,23.07
2024-02-28T00:07:54.023Z,24.13
2024-02-28T00:10:16.415Z,24.67
2024-02-28T00:12:38.889Z,22.43
2024-02-28T00:15:01.216Z,23.83
2024-02-28T00:17:23.759Z,23.13
2024-02-28T00:19:46.222Z,21.67
2024-02-28T00:22:08.595Z,23.20
2024-02-28T00:24:31.067Z,24.13
2024-02-28T00:26:53.529Z,21.83
2024-02-28T00:29:15.849Z,23.67
2024-02-28T00:31:38.276Z,24.30
2024-02-28T00:34:00.673Z,24.80
2024-02-28T00:36:23.126Z,22.40
2024-02-28T00:38:45.482Z,25.63
2024-02-28T00:41:07.775Z,25.97
2024-02-28T00:43:30.095Z,24.37
2024-02-28T00:45:52.571Z,23.77
2024-02-28T00:48:17.393Z,25.53
2024-02-28T00:50:39.735Z,27.83
2024-02-28T00:53:02.021Z,28.43
2024-02-28T00:55:24.384Z,26.67
2024-02-28T00:57:46.917Z,26.30
2024-02-28T01:00:11.137Z,24.60
2024-02-28T01:02:34.133Z,27.33
2024-02-28T01:04:56.520Z,27.57
2024-02-28T01:07:18.897Z,27.73
2024-02-28T01:09:41.327Z,27.03
2024-02-28T01:12:04.332Z,27.83
2024-02-28T01:14:26.678Z,27.60
2024-02-28T01:16:50.082Z,28.87
2024-02-28T01:19:13.379Z,28.00
2024-02-28T01:21:35.663Z,28.33
2024-02-28T01:23:57.985Z,29.37
2024-02-28T01:26:22.628Z,28.00
2024-02-28T01:28:44.937Z,26.87
2024-02-28T01:31:07.352Z,27.20
2024-02-28T01:33:30.520Z,26.33
2024-02-28T01:35:52.824Z,26.47
2024-02-28T01:38:15.100Z,25.97
2024-02-28T01:40:37.423Z,27.70
2024-02-28T01:43:11.592Z,26.23
2024-02-28T01:45:33.999Z,26.97
2024-02-28T01:47:56.621Z,25.73
2024-02-28T01:50:19.056Z,28.53
2024-02-28T01:52:41.783Z,27.17
2024-02-28T01:55:04.319Z,26.53
2024-02-28T01:57:28.346Z,26.97
2024-02-28T01:59:51.133Z,27.10
2024-02-28T02:02:13.462Z,26.53
2024-02-28T02:04:35.786Z,25.93
2024-02-28T02:06:59.356Z,27.83
2024-02-28T02:09:22.055Z,27.83
2024-02-28T02:11:44.428Z,27.60
2024-02-28T02:14:06.882Z,27.97
2024-02-28T02:16:29.214Z,29.27
2024-02-28T02:18:51.819Z,25.93
2024-02-28T02:21:17.507Z,28.93
2024-02-28T02:23:42.432Z,27.97
2024-02-28T02:26:04.927Z,26.53
2024-02-28T02:28:27.253Z,29.37
2024-02-28T02:30:50.437Z,29.80
2024-02-28T02:33:12.888Z,26.63
2024-02-28T02:35:35.632Z,29.13
2024-02-28T02:37:58.343Z,25.87
2024-02-28T02:40:20.619Z,30.13
2024-02-28T02:42:43.070Z,28.90
2024-02-28T02:45:05.616Z,28.00
2024-02-28T02:47:28.031Z,26.63
2024-02-28T02:49:50.372Z,29.03
2024-02-28T02:52:12.650Z,28.87
2024-02-28T02:54:35.033Z,28.90
2024-02-28T02:56:57.422Z,28.30
2024-02-28T02:59:22.580Z,29.43
2024-02-28T03:01:45.079Z,30.07
2024-02-28T03:04:07.516Z,27.87
2024-02-28T03:06:29.924Z,28.80
2024-02-28T03:08:53.032Z,26.93
2024-02-28T03:11:15.475Z,28.23
2024-02-28T03:13:37.845Z,27.90
2024-02-28T03:16:00.247Z,26.73
2024-02-28T03:18:22.701Z,27.03
2024-02-28T03:20:45.110Z,27.07
2024-02-28T03:23:07.812Z,26.40
2024-02-28T03:25:30.260Z,25.57
2024-02-28T03:27:53.455Z,28.97
2024-02-28T03:30:16.171Z,29.83
2024-02-28T03:32:38.614Z,28.13
2024-02-28T03:35:01.204Z,28.70
2024-02-28T03:37:23.647Z,26.00
2024-02-28T03:39:45.969Z,27.93
2024-02-28T03:42:08.814Z,26.87
2024-02-28T03:44:31.203Z,26.10
2024-02-28T03:46:53.589Z,26.47
2024-02-28T03:49:15.974Z,27.17
2024-02-28T03:51:44.329Z,29.37
2024-02-28T03:54:06.651Z,28.40
2024-02-28T03:56:29.796Z,27.50
2024-02-28T03:58:52.231Z,28.30
2024-02-28T04:01:14.780Z,28.17
2024-02-28T04:03:42.921Z,27.80
2024-02-28T04:06:05.402Z,29.47
2024-02-28T04:08:27.745Z,28.53
2024-02-28T04:10:51.877Z,28.03
2024-02-28T04:13:14.472Z,27.77
2024-02-28T04:15:36.819Z,27.40
2024-02-28T04:17:59.204Z,26.77
2024-02-28T04:20:21.569Z,28.13
2024-02-28T04:22:43.854Z,28.10
2024-02-28T04:25:09.934Z,28.13
2024-02-28T04:27:32.328Z,27.30
2024-02-28T04:29:54.700Z,26.50
2024-02-28T04:32:17.431Z,26.43
2024-02-28T04:34:39.779Z,27.67
2024-02-28T04:37:02.155Z,26.63
2024-02-28T04:39:24.629Z,26.87
2024-02-28T04:41:47.283Z,26.10
2024-02-28T04:44:09.647Z,25.63
2024-02-28T04:46:31.998Z,25.10
2024-02-28T04:48:54.335Z,24.93
2024-02-28T04:51:20.084Z,27.53
2024-02-28T04:53:42.415Z,28.20
2024-02-28T04:56:04.893Z,24.67
2024-02-28T04:58:27.287Z,26.67
2024-02-28T05:00:49.664Z,27.80
2024-02-28T05:03:12.062Z,27.17
2024-02-28T05:05:34.829Z,27.17
2024-02-28T05:07:57.108Z,27.83
2024-02-28T05:10:19.597Z,27.90
2024-02-28T05:12:42.074Z,27.20
2024-02-28T05:15:04.531Z,28.00
2024-02-28T05:17:27.216Z,27.40
2024-02-28T05:19:49.635Z,28.23
2024-02-28T05:22:12.461Z,28.47
2024-02-28T05:24:34.936Z,28.93
2024-02-28T05:26:57.454Z,28.67
2024-02-28T05:29:19.875Z,28.83
2024-02-28T05:31:42.161Z,28.90
2024-02-28T05:34:04.761Z,28.60
2024-02-28T05:36:28.138Z,27.53
2024-02-28T05:38:50.807Z,28.57
2024-02-28T05:41:13.220Z,29.53
2024-02-28T05:43:35.534Z,28.57
2024-02-28T05:45:57.855Z,28.37
2024-02-28T05:48:20.239Z,29.50
2024-02-28T05:50:42.629Z,30.40
2024-02-28T05:53:05.010Z,30.10
2024-02-28T05:55:27.592Z,29.33
2024-02-28T05:57:49.981Z,29.17
2024-02-28T06:00:12.844Z,31.23
2024-02-28T06:02:35.453Z,31.20
2024-02-28T06:04:57.830Z,28.63
2024-02-28T06:07:20.148Z,31.27
2024-02-28T06:09:42.497Z,28.83
2024-02-28T06:12:05.266Z,28.80
2024-02-28T06:14:27.539Z,30.53
2024-02-28T06:16:49.855Z,31.90
2024-02-28T06:19:12.388Z,30.00
2024-02-28T06:21:34.752Z,31.63
2024-02-28T06:23:57.744Z,28.80
2024-02-28T06:26:20.114Z,28.83
2024-02-28T06:28:43.970Z,30.30
2024-02-28T06:31:06.268Z,29.55
2024-02-28T06:33:28.688Z,28.10
2024-02-28T06:35:51.034Z,28.90
2024-02-28T06:38:13.374Z,27.13
2024-02-28T06:40:36.190Z,28.50
2024-02-28T06:42:58.546Z,27.20
2024-02-28T06:45:21.009Z,29.50
2024-02-28T06:47:44.438Z,28.57
2024-02-28T06:50:07.148Z,28.93
2024-02-28T06:52:29.571Z,27.50
2024-02-28T06:54:52.852Z,26.67
2024-02-28T06:57:15.323Z,26.47
2024-02-28T06:59:37.670Z,26.77
2024-02-28T07:02:00.297Z,26.47
2024-02-28T07:04:22.644Z,29.93
2024-02-28T07:06:45.067Z,27.97
2024-02-28T07:09:10.186Z,26.80
2024-02-28T07:11:32.569Z,26.53
2024-02-28T07:13:55.183Z,28.27
2024-02-28T07:16:17.538Z,27.23
2024-02-28T07:18:40.145Z,35.73
2024-02-28T07:21:02.657Z,27.63
2024-02-28T07:23:24.970Z,25.47
2024-02-28T07:25:47.489Z,24.40
2024-02-28T07:28:09.831Z,27.13
2024-02-28T07:30:32.688Z,26.83
2024-02-28T07:32:55.201Z,24.43
2024-02-28T07:35:17.546Z,26.50
2024-02-28T07:37:39.879Z,26.53
2024-02-28T07:40:02.455Z,26.90
2024-02-28T07:42:25.118Z,25.43
2024-02-28T07:44:47.533Z,25.97
2024-02-28T07:47:09.894Z,24.30
2024-02-28T07:49:32.237Z,23.90
2024-02-28T07:51:54.675Z,25.10
2024-02-28T07:54:17.234Z,26.03
2024-02-28T07:56:39.597Z,27.83
2024-02-28T07:59:01.949Z,23.80
2024-02-28T08:01:24.655Z,28.07
2024-02-28T08:03:47.379Z,27.63
2024-02-28T08:06:12.699Z,26.87
2024-02-28T08:08:35.044Z,25.83
2024-02-28T08:10:57.498Z,23.57
2024-02-28T08:13:19.857Z,25.87
2024-02-28T08:15:42.343Z,24.43
2024-02-28T08:18:04.895Z,25.57
2024-02-28T08:20:28.340Z,22.83
2024-02-28T08:22:51.487Z,22.67
2024-02-28T08:25:14.045Z,25.00
2024-02-28T08:27:36.512Z,25.63
2024-02-28T08:29:58.846Z,25.27
2024-02-28T08:32:21.713Z,22.33
2024-02-28T08:34:47.461Z,24.20
2024-02-28T08:37:09.884Z,22.63
2024-02-28T08:39:32.440Z,22.70
2024-02-28T08:41:54.856Z,25.90
2024-02-28T08:44:17.260Z,25.93
2024-02-28T08:46:39.594Z,24.70
2024-02-28T08:49:02.049Z,25.63
2024-02-28T08:51:24.492Z,24.90
2024-02-28T08:53:47.021Z,24.50
2024-02-28T08:56:09.408Z,25.07
2024-02-28T08:58:31.710Z,22.70
2024-02-28T09:00:55.103Z,23.07
2024-02-28T09:03:17.701Z,22.90
2024-02-28T09:05:40.461Z,23.83
2024-02-28T09:08:03.564Z,24.33
2024-02-28T09:10:26.819Z,21.40
2024-02-28T09:12:49.258Z,23.90
2024-02-28T09:15:11.688Z,22.77
2024-02-28T09:17:34.076Z,21.63
2024-02-28T09:19:56.406Z,22.63
2024-02-28T09:22:18.902Z,20.73
2024-02-28T09:24:44.120Z,23.97
2024-02-28T09:27:07.417Z,24.23
2024-02-28T09:29:29.801Z,22.93
2024-02-28T09:31:52.549Z,22.90
2024-02-28T09:34:15.240Z,23.93
2024-02-28T09:36:49.792Z,24.63
2024-02-28T09:39:14.200Z,19.80
2024-02-28T09:41:36.520Z,19.53
2024-02-28T09:43:59.199Z,23.77
2024-02-28T09:46:21.704Z,23.30
2024-02-28T09:48:46.246Z,21.57
2024-02-28T09:51:13.956Z,23.90
2024-02-28T09:53:36.531Z,21.53
2024-02-28T09:55:58.844Z,22.37
2024-02-28T09:58:22.513Z,23.23
2024-02-28T10:00:45.452Z,23.47
2024-02-28T10:03:08.862Z,24.07
2024-02-28T10:05:31.571Z,25.20
2024-02-28T10:07:54.671Z,24.50
2024-02-28T10:10:18.482Z,21.93
2024-02-28T10:12:45.510Z,23.33
2024-02-28T10:15:08.104Z,22.23
2024-02-28T10:17:30.721Z,20.13
2024-02-28T10:19:54.422Z,18.97
2024-02-28T10:22:16.753Z,19.67
2024-02-28T10:24:39.361Z,20.93
2024-02-28T10:27:04.813Z,19.30
2024-02-28T10:29:29.232Z,19.97
2024-02-28T10:31:51.896Z,18.80
2024-02-28T10:34:16.380Z,20.47
2024-02-28T10:36:39.908Z,21.30
2024-02-28T10:39:02.657Z,18.20
2024-02-28T10:41:26.311Z,19.40
2024-02-28T10:43:50.319Z,20.30
2024-02-28T10:46:33.403Z,19.23
2024-02-28T10:48:58.398Z,17.37
2024-02-28T10:51:25.792Z,18.63
2024-02-28T10:53:49.920Z,16.77
2024-02-28T10:56:13.376Z,18.37
2024-02-28T10:58:38.186Z,17.77
2024-02-28T11:01:00.919Z,17.83
2024-02-28T11:03:24.847Z,17.80
2024-02-28T11:05:48.558Z,16.60
2024-02-28T11:08:21.762Z,18.73
2024-02-28T11:10:44.893Z,17.60
2024-02-28T11:13:07.320Z,18.83
2024-02-28T11:15:29.810Z,17.67
2024-02-28T11:17:52.203Z,19.17
2024-02-28T11:20:15.165Z,17.53
2024-02-28T11:22:37.543Z,17.43
2024-02-28T11:24:59.995Z,16.73
2024-02-28T11:27:23.236Z,16.40
2024-02-28T11:29:47.880Z,19.13
2024-02-28T11:32:11.825Z,20.00
2024-02-28T11:34:35.449Z,18.13
2024-02-28T11:36:59.938Z,20.23
2024-02-28T11:39:25.804Z,18.37
2024-02-28T11:41:48.701Z,19.10
2024-02-28T11:44:11.584Z,18.47
2024-02-28T11:46:34.577Z,18.70
2024-02-28T11:48:57.575Z,16.67
2024-02-28T11:51:20.068Z,19.57
2024-02-28T11:53:42.903Z,15.93
2024-02-28T11:56:05.455Z,16.20
2024-02-28T11:58:27.913Z,17.53
2024-02-28T12:00:50.964Z,17.20
2024-02-28T12:03:13.347Z,16.77
2024-02-28T12:05:35.704Z,15.20
2024-02-28T12:07:59.394Z,18.23
2024-02-28T12:10:22.325Z,14.90
2024-02-28T12:12:44.683Z,15.57
2024-02-28T12:15:07.286Z,14.80
2024-02-28T12:17:29.727Z,15.70
2024-02-28T12:19:55.833Z,17.10
2024-02-28T12:22:18.628Z,17.20
2024-02-28T12:24:41.052Z,15.27
2024-02-28T12:27:03.489Z,15.87
2024-02-28T12:29:25.908Z,15.93
2024-02-28T12:31:48.496Z,15.93
2024-02-28T12:34:10.912Z,14.70
2024-02-28T12:36:33.880Z,15.23
2024-02-28T12:38:56.409Z,15.35
2024-02-28T12:41:18.832Z,15.23
2024-02-28T12:43:41.418Z,13.70
2024-02-28T12:46:04.086Z,15.30
2024-02-28T12:48:26.592Z,15.60
2024-02-28T12:50:49.361Z,16.27
2024-02-28T12:53:11.816Z,15.43
2024-02-28T12:55:34.276Z,16.38
2024-02-28T12:57:56.725Z,15.73
2024-02-28T13:00:19.317Z,16.42
2024-02-28T13:02:41.766Z,15.30
2024-02-28T13:05:04.276Z,16.27
2024-02-28T13:07:26.651Z,18.25
2024-02-28T13:09:50.311Z,17.30
2024-02-28T13:12:12.911Z,14.60
2024-02-28T13:14:35.402Z,15.77
2024-02-28T13:17:00.616Z,18.42
2024-02-28T13:19:24.256Z,17.20
2024-02-28T13:21:46.781Z,16.58
2024-02-28T13:24:09.445Z,17.10
2024-02-28T13:26:31.911Z,17.23
2024-02-28T13:28:54.869Z,15.98
2024-02-28T13:31:18.804Z,15.05
2024-02-28T13:33:42.926Z,16.75
2024-02-28T13:36:05.688Z,17.95
2024-02-28T13:38:28.138Z,17.88
2024-02-28T13:40:50.978Z,18.25
2024-02-28T13:43:13.733Z,16.17
2024-02-28T13:45:36.193Z,17.10
2024-02-28T13:47:58.660Z,18.30
2024-02-28T13:50:21.067Z,16.27
2024-02-28T13:52:43.608Z,17.05
2024-02-28T13:55:06.529Z,16.67
2024-02-28T13:57:29.128Z,15.35
2024-02-28T13:59:54.439Z,16.23
2024-02-28T14:02:17.625Z,15.77
2024-02-28T14:04:42.599Z,16.10
2024-02-28T14:07:05.000Z,14.38
2024-02-28T14:09:27.623Z,15.05
2024-02-28T14:11:50.314Z,15.45
2024-02-28T14:14:13.189Z,14.32
2024-02-28T14:16:35.628Z,14.07
2024-02-28T14:18:58.168Z,15.23
2024-02-28T14:21:21.072Z,17.05
2024-02-28T14:23:43.617Z,17.02
2024-02-28T14:26:06.012Z,14.70
2024-02-28T14:28:28.330Z,15.45
2024-02-28T14:30:51.786Z,13.27
2024-02-28T14:33:15.057Z,13.32
2024-02-28T14:35:40.147Z,14.82
2024-02-28T14:38:02.633Z,15.23
2024-02-28T14:40:25.430Z,14.90
2024-02-28T14:42:47.870Z,12.85
2024-02-28T14:45:11.739Z,14.93
2024-02-28T14:47:35.065Z,15.68
2024-02-28T14:49:57.698Z,15.95
2024-02-28T14:52:20.051Z,14.13
2024-02-28T14:54:42.497Z,15.82
2024-02-28T14:57:04.933Z,16.33
2024-02-28T14:59:27.437Z,15.43
2024-02-28T15:01:50.076Z,15.30
2024-02-28T15:04:15.313Z,15.90
2024-02-28T15:06:37.831Z,16.02
2024-02-28T15:09:00.484Z,15.70
2024-02-28T15:11:22.833Z,18.38
2024-02-28T15:13:45.171Z,17.83
2024-02-28T15:16:07.651Z,16.30
2024-02-28T15:18:30.040Z,17.52
2024-02-28T15:20:55.785Z,18.23
2024-02-28T15:23:19.014Z,17.13
2024-02-28T15:25:41.385Z,15.15
2024-02-28T15:28:03.831Z,17.45
2024-02-28T15:30:26.214Z,18.40
2024-02-28T15:32:48.620Z,18.08
2024-02-28T15:35:12.547Z,16.90
2024-02-28T15:37:36.374Z,17.25
2024-02-28T15:39:58.812Z,16.88
2024-02-28T15:42:21.246Z,16.63
2024-02-28T15:44:43.632Z,17.27
2024-02-28T15:47:06.151Z,16.88
2024-02-28T15:49:37.014Z,16.35
2024-02-28T15:52:03.378Z,17.60
2024-02-28T15:54:25.754Z,17.85
2024-02-28T15:56:48.059Z,18.20
2024-02-28T15:59:13.202Z,18.67
2024-02-28T16:01:35.753Z,18.43
2024-02-28T16:03:58.314Z,19.02
2024-02-28T16:06:26.248Z,17.87
2024-02-28T16:08:53.584Z,17.08
2024-02-28T16:11:15.974Z,17.33
2024-02-28T16:13:38.752Z,20.83
2024-02-28T16:16:01.290Z,18.50
2024-02-28T16:18:23.725Z,18.67
2024-02-28T16:20:46.073Z,21.33
2024-02-28T16:23:08.404Z,20.33
2024-02-28T16:25:30.805Z,18.33
2024-02-28T16:27:53.195Z,19.63
2024-02-28T16:30:20.634Z,21.30
2024-02-28T16:32:43.195Z,21.43
2024-02-28T16:35:05.754Z,18.07
2024-02-28T16:37:28.155Z,20.53
2024-02-28T16:39:50.695Z,22.03
2024-02-28T16:42:13.082Z,24.23
2024-02-28T16:44:35.453Z,21.30
2024-02-28T16:46:58.222Z,22.63
2024-02-28T16:49:21.813Z,23.03
2024-02-28T16:51:44.498Z,22.33
2024-02-28T16:54:07.335Z,23.33
2024-02-28T16:56:29.710Z,21.40
2024-02-28T16:58:52.095Z,24.03
2024-02-28T17:01:15.339Z,22.27
2024-02-28T17:03:38.055Z,22.97
2024-02-28T17:06:00.603Z,22.50
2024-02-28T17:08:23.290Z,23.50
2024-02-28T17:10:45.636Z,22.70
2024-02-28T17:13:10.362Z,22.47
2024-02-28T17:15:36.743Z,23.07
2024-02-28T17:17:59.527Z,21.93
2024-02-28T17:20:21.933Z,24.53
2024-02-28T17:22:44.203Z,22.70
2024-02-28T17:25:06.803Z,23.93
2024-02-28T17:27:29.616Z,24.30
2024-02-28T17:29:52.019Z,25.43
2024-02-28T17:32:15.708Z,23.53
2024-02-28T17:34:38.116Z,24.23
2024-02-28T17:37:03.119Z,25.40
2024-02-28T17:39:25.705Z,23.07
2024-02-28T17:41:49.068Z,23.73
2024-02-28T17:44:12.136Z,26.50
2024-02-28T17:46:34.541Z,26.90
2024-02-28T17:48:57.055Z,25.40
2024-02-28T17:51:19.381Z,27.57
2024-02-28T17:53:41.775Z,25.87
2024-02-28T17:56:06.994Z,25.97
2024-02-28T17:58:30.401Z,26.10
2024-02-28T18:00:57.444Z,27.57
2024-02-28T18:03:19.821Z,27.07
2024-02-28T18:05:42.228Z,27.67
2024-02-28T18:08:04.816Z,27.00
2024-02-28T18:10:27.146Z,25.70
2024-02-28T18:12:49.668Z,26.80
2024-02-28T18:15:13.990Z,26.80
2024-02-28T18:17:36.506Z,26.73
2024-02-28T18:19:59.897Z,26.33
2024-02-28T18:22:23.198Z,26.07
2024-02-28T18:24:45.597Z,26.43
2024-02-28T18:27:10.376Z,25.30
2024-02-28T18:29:33.749Z,25.87
2024-02-28T18:31:56.110Z,24.53
2024-02-28T18:34:18.591Z,25.70
2024-02-28T18:36:41.450Z,25.87
2024-02-28T18:39:04.468Z,27.57
2024-02-28T18:41:26.962Z,26.47
2024-02-28T18:43:49.501Z,25.33
2024-02-28T18:46:14.091Z,27.17
2024-02-28T18:48:37.671Z,25.27
2024-02-28T18:51:00.817Z,26.03
2024-02-28T18:53:23.074Z,27.07
2024-02-28T18:55:45.423Z,25.20
2024-02-28T18:58:07.896Z,25.73
2024-02-28T19:00:31.730Z,25.03
2024-02-28T19:02:54.846Z,26.50
2024-02-28T19:05:17.406Z,26.57
2024-02-28T19:07:39.712Z,26.90
2024-02-28T19:10:02.209Z,24.60
2024-02-28T19:12:24.598Z,26.23
2024-02-28T19:14:46.983Z,25.63
2024-02-28T19:17:09.367Z,23.70
2024-02-28T19:19:35.021Z,25.57
2024-02-28T19:21:57.390Z,25.23
2024-02-28T19:24:21.797Z,24.73
2024-02-28T19:26:44.259Z,23.90
2024-02-28T19:29:07.647Z,24.40
2024-02-28T19:31:30.125Z,23.77
2024-02-28T19:33:52.531Z,23.83
2024-02-28T19:36:15.067Z,23.87
2024-02-28T19:38:37.678Z,24.33
2024-02-28T19:41:00.152Z,25.00
2024-02-28T19:43:22.508Z,24.43
2024-02-28T19:45:45.523Z,23.87
2024-02-28T19:48:08.427Z,25.83
2024-02-28T19:50:30.914Z,24.53
2024-02-28T19:52:53.249Z,26.77
2024-02-28T19:55:15.651Z,24.97
2024-02-28T19:57:38.109Z,25.03
2024-02-28T20:00:00.506Z,25.63
2024-02-28T20:02:23.820Z,25.63
2024-02-28T20:04:46.431Z,24.50
2024-02-28T20:07:09.312Z,23.37
2024-02-28T20:09:35.649Z,23.83
2024-02-28T20:11:58.487Z,24.67
2024-02-28T20:14:20.790Z,26.27
2024-02-28T20:16:44.308Z,25.50
2024-02-28T20:19:06.739Z,25.63
2024-02-28T20:21:31.357Z,24.27
2024-02-28T20:23:53.948Z,26.33
2024-02-28T20:26:18.079Z,26.67
2024-02-28T20:28:41.190Z,26.40
2024-02-28T20:31:03.644Z,25.77
2024-02-28T20:33:29.089Z,25.50
2024-02-28T20:35:51.502Z,25.13
2024-02-28T20:38:15.230Z,25.27
2024-02-28T20:40:37.671Z,24.27
2024-02-28T20:43:01.647Z,23.43
2024-02-28T20:45:24.251Z,24.83
2024-02-28T20:47:46.965Z,26.00
2024-02-28T20:50:10.006Z,25.10
2024-02-28T20:52:32.824Z,26.83
2024-02-28T20:54:55.877Z,26.17
2024-02-28T20:57:18.318Z,27.97
2024-02-28T20:59:40.667Z,27.17
2024-02-28T21:02:03.089Z,27.50
2024-02-28T21:04:25.498Z,27.13
2024-02-28T21:06:48.800Z,28.63
2024-02-28T21:09:11.398Z,26.27
2024-02-28T21:11:33.846Z,27.87
2024-02-28T21:13:57.673Z,26.10
2024-02-28T21:16:20.352Z,25.50
2024-02-28T21:18:42.657Z,27.03
2024-02-28T21:21:06.061Z,25.60
2024-02-28T21:23:28.689Z,25.03
2024-02-28T21:25:51.047Z,26.33
2024-02-28T21:28:13.485Z,24.10
2024-02-28T21:30:35.919Z,25.90
2024-02-28T21:32:58.651Z,24.73
2024-02-28T21:35:20.949Z,24.57
2024-02-28T21:37:43.568Z,24.03
2024-02-28T21:40:06.135Z,25.00
2024-02-28T21:42:28.535Z,25.30
2024-02-28T21:44:50.967Z,25.97
2024-02-28T21:47:14.143Z,26.40
2024-02-28T21:49:36.651Z,24.37
2024-02-28T21:51:59.339Z,24.87
2024-02-28T21:54:21.735Z,24.80
2024-02-28T21:56:44.222Z,24.40
2024-02-28T21:59:06.606Z,24.37
2024-02-28T22:01:29.190Z,26.27
2024-02-28T22:03:51.826Z,26.07
2024-02-28T22:06:14.355Z,24.73
2024-02-28T22:08:36.725Z,24.47
2024-02-28T22:10:59.113Z,23.10
2024-02-28T22:13:21.548Z,25.33
2024-02-28T22:15:43.923Z,25.57
2024-02-28T22:18:09.333Z,25.47
2024-02-28T22:20:31.879Z,26.30
2024-02-28T22:22:57.162Z,25.03
2024-02-28T22:25:19.537Z,24.93
2024-02-28T22:27:41.870Z,25.97
2024-02-28T22:30:04.972Z,27.33
2024-02-28T22:32:27.401Z,28.00
2024-02-28T22:34:50.053Z,29.53
2024-02-28T22:37:12.381Z,30.50
2024-02-28T22:39:35.002Z,30.23
2024-02-28T22:42:00.777Z,30.03
2024-02-28T22:44:23.065Z,29.60
2024-02-28T22:46:46.702Z,29.40
2024-02-28T22:49:09.335Z,29.83
2024-02-28T22:51:32.112Z,29.93
2024-02-28T22:53:54.649Z,29.30
2024-02-28T22:56:16.974Z,29.47
2024-02-28T22:58:39.290Z,29.10
2024-02-28T23:01:01.899Z,27.73
2024-02-28T23:03:29.704Z,26.53
2024-02-28T23:05:52.090Z,25.37
2024-02-28T23:08:14.597Z,26.83
2024-02-28T23:10:37.062Z,28.27
2024-02-28T23:13:00.805Z,27.00
2024-02-28T23:15:24.002Z,28.70
2024-02-28T23:17:46.756Z,25.73
2024-02-28T23:20:11.041Z,27.30
2024-02-28T23:22:33.341Z,26.67
2024-02-28T23:24:55.803Z,25.67
2024-02-28T23:27:18.198Z,25.30
2024-02-28T23:29:40.483Z,26.83
2024-02-28T23:32:02.975Z,25.93
2024-02-28T23:34:25.425Z,26.27
2024-02-28T23:36:47.712Z,26.23
2024-02-28T23:39:10.015Z,26.30
2024-02-28T23:41:33.439Z,24.70
2024-02-28T23:43:58.465Z,26.27
2024-02-28T23:46:21.253Z,26.27
2024-02-28T23:48:43.657Z,26.30
2024-02-28T23:51:06.172Z,27.33
2024-02-28T23:53:28.486Z,26.90
2024-02-28T23:55:51.458Z,25.47
2024-02-28T23:58:13.970Z,26.77
